| time (UTC) | temp C | wind direction | speed KPH | gust KPH | rain 1hr cm | rain 24hr cm | rain mn cm | humidity % | barometer mb |
| 20260510063905 | 12 | 326 | 0.0 | 4.8 | 0.00 | 2.01 | 0.10 | 87 | 1010.4 |
| 20260510063404 | 12 | 305 | 3.2 | 4.8 | 0.00 | 2.01 | 0.10 | 88 | 1010.3 |
| 20260510060905 | 11 | 78 | 0.0 | 1.6 | 0.00 | 2.01 | 0.10 | 87 | 1010.2 |
| 20260510060404 | 11 | 78 | 1.6 | 4.8 | 0.00 | 2.01 | 0.10 | 88 | 1010.2 |
| 20260510053904 | 10 | 293 | 0.0 | 3.2 | 0.00 | 2.01 | 0.10 | 88 | 1010.2 |
| 20260510053405 | 10 | 294 | 1.6 | 4.8 | 0.00 | 2.01 | 0.10 | 88 | 1010.2 |
| 20260510050904 | 10 | 278 | 0.0 | 0.0 | 0.00 | 2.01 | 0.10 | 88 | 1010.2 |
| 20260510050404 | 11 | 152 | 0.0 | 3.2 | 0.00 | 2.01 | 0.10 | 88 | 1010.1 |
| 20260510043405 | 11 | 1 | 0.0 | 1.6 | 0.00 | 2.01 | 0.10 | 87 | 1010.4 |
| 20260510040905 | 11 | 178 | 0.0 | 1.6 | 0.00 | 2.01 | 0.10 | 87 | 1010.4 |
| 20260510040404 | 11 | 1 | 3.2 | 4.8 | 0.00 | 2.01 | 0.10 | 87 | 1010.4 |
| 20260510033905 | 11 | 175 | 0.0 | 0.0 | 0.00 | 2.01 | 0.10 | 87 | 1010.5 |
| 20260510033404 | 11 | 2 | 0.0 | 4.8 | 0.00 | 2.01 | 0.10 | 88 | 1010.5 |
| 20260510030405 | 11 | 0 | 0.0 | 3.2 | 0.00 | 2.01 | 0.10 | 87 | 1010.6 |
| 20260510023905 | 11 | 215 | 0.0 | 1.6 | 0.00 | 2.01 | 0.10 | 87 | 1010.7 |
| 20260510023405 | 11 | 215 | 0.0 | 4.8 | 0.00 | 2.01 | 0.10 | 87 | 1010.7 |
| 20260510020905 | 12 | 201 | 3.2 | 4.8 | 0.00 | 2.01 | 0.10 | 87 | 1010.7 |
| 20260510020405 | 12 | 182 | 1.6 | 4.8 | 0.00 | 2.01 | 0.10 | 87 | 1010.7 |
| 20260510013904 | 12 | 245 | 4.8 | 4.8 | 0.00 | 2.01 | 0.10 | 87 | 1010.9 |
| 20260510013405 | 12 | 235 | 3.2 | 4.8 | 0.00 | 2.01 | 0.10 | 87 | 1010.9 |
| 20260510010904 | 13 | 207 | 0.0 | 3.2 | 0.00 | 2.01 | 0.10 | 87 | 1010.9 |
| 20260510010404 | 13 | 207 | 1.6 | 4.8 | 0.00 | 2.01 | 0.10 | 87 | 1011.0 |
| 20260510003905 | 13 | 236 | 0.0 | 0.0 | 0.00 | 2.01 | 0.10 | 87 | 1011.4 |
| 20260510003405 | 13 | 236 | 0.0 | 4.8 | 0.00 | 2.01 | 0.10 | 87 | 1011.6 |
| 20260510000905 | 13 | 247 | 1.6 | 3.2 | 0.00 | 2.01 | 0.10 | 87 | 1012.0 |
| 20260510000405 | 13 | 281 | 0.0 | 3.2 | 0.03 | 2.01 | 0.10 | 87 | 1012.0 |
| 20260509233904 | 13 | 297 | 1.6 | 3.2 | 0.03 | 2.01 | 0.10 | 87 | 1012.3 |
| 20260509233403 | 13 | 286 | 0.0 | 4.8 | 0.03 | 2.01 | 0.10 | 87 | 1012.3 |
| 20260509230905 | 13 | 267 | 0.0 | 3.2 | 0.10 | 2.01 | 0.10 | 87 | 1012.4 |
| 20260509223905 | 13 | 277 | 1.6 | 4.8 | 0.10 | 1.98 | 0.08 | 87 | 1012.5 |
| 20260509220905 | 13 | 267 | 1.6 | 4.8 | 0.05 | 1.91 | 0.00 | 87 | 1012.5 |
| 20260509220404 | 13 | 252 | 3.2 | 4.8 | 0.05 | 1.91 | 0.00 | 87 | 1012.5 |
| 20260509213904 | 13 | 297 | 0.0 | 0.0 | 0.08 | 1.88 | 1.88 | 87 | 1012.3 |
| 20260509213405 | 13 | 297 | 0.0 | 0.0 | 0.08 | 1.88 | 1.88 | 87 | 1012.3 |
| 20260509210904 | 13 | 297 | 0.0 | 3.2 | 0.08 | 1.85 | 1.85 | 87 | 1012.1 |
| 20260509210404 | 13 | 297 | 0.0 | 3.2 | 0.08 | 1.85 | 1.85 | 87 | 1012.1 |
| 20260509203904 | 13 | 297 | 0.0 | 1.6 | 0.05 | 1.80 | 1.80 | 87 | 1012.0 |
| 20260509203405 | 13 | 297 | 0.0 | 4.8 | 0.05 | 1.80 | 1.80 | 87 | 1012.0 |
| 20260509200905 | 13 | 280 | 3.2 | 9.7 | 0.05 | 1.78 | 1.78 | 87 | 1011.6 |
| 20260509200404 | 13 | 306 | 3.2 | 12.9 | 0.05 | 1.78 | 1.78 | 87 | 1011.5 |
| 20260509193904 | 13 | 274 | 4.8 | 14.5 | 0.05 | 1.75 | 1.75 | 87 | 1010.5 |
| 20260509193404 | 13 | 306 | 4.8 | 14.5 | 0.05 | 1.75 | 1.75 | 87 | 1010.4 |
| 20260509190405 | 13 | 267 | 8.0 | 32.2 | 0.20 | 1.73 | 1.73 | 87 | 1009.7 |
| 20260509183904 | 13 | 20 | 12.9 | 27.4 | 0.46 | 1.68 | 1.68 | 87 | 1008.2 |
| 20260509183405 | 13 | 10 | 20.9 | 32.2 | 0.48 | 1.68 | 1.68 | 87 | 1008.1 |
| 20260509180405 | 14 | 32 | 11.3 | 22.5 | 0.76 | 1.50 | 1.50 | 87 | 1010.1 |
| 20260509173904 | 14 | 60 | 1.6 | 4.8 | 0.86 | 1.24 | 1.24 | 86 | 1011.2 |
| 20260509173404 | 14 | 90 | 1.6 | 9.7 | 0.89 | 1.19 | 1.19 | 86 | 1011.3 |
| 20260509170904 | 15 | 231 | 4.8 | 11.3 | 0.81 | 0.89 | 0.89 | 86 | 1011.7 |
| 20260509170404 | 15 | 251 | 4.8 | 12.9 | 0.66 | 0.76 | 0.76 | 86 | 1011.7 |
| 20260509163904 | 15 | 305 | 3.2 | 4.8 | 0.38 | 0.38 | 0.38 | 86 | 1011.5 |
| 20260509163404 | 15 | 64 | 0.0 | 9.7 | 0.33 | 0.33 | 0.33 | 86 | 1011.3 |
| 20260509160405 | 15 | 107 | 4.8 | 19.3 | 0.08 | 0.08 | 0.08 | 85 | 1010.5 |
| 20260509153905 | 16 | 75 | 14.5 | 20.9 | 0.00 | 0.00 | 0.00 | 84 | 1009.7 |
| 20260509153404 | 16 | 66 | 14.5 | 19.3 | 0.00 | 0.00 | 0.00 | 83 | 1009.9 |
| 20260509150903 | 17 | 107 | 8.0 | 11.3 | 0.00 | 0.00 | 0.00 | 79 | 1011.1 |
| 20260509150404 | 17 | 117 | 6.4 | 9.7 | 0.00 | 0.00 | 0.00 | 77 | 1011.2 |
| 20260509143404 | 17 | 176 | 4.8 | 8.0 | 0.00 | 0.00 | 0.00 | 74 | 1012.1 |
| 20260509140905 | 17 | 36 | 4.8 | 9.7 | 0.00 | 0.00 | 0.00 | 73 | 1011.3 |
| 20260509140405 | 17 | 24 | 1.6 | 19.3 | 0.00 | 0.00 | 0.00 | 73 | 1011.3 |
| 20260509133904 | 17 | 80 | 11.3 | 19.3 | 0.00 | 0.00 | 0.00 | 74 | 1010.9 |
| 20260509133404 | 17 | 84 | 11.3 | 24.1 | 0.00 | 0.00 | 0.00 | 74 | 1011.0 |
| 20260509130904 | 18 | 65 | 11.3 | 19.3 | 0.00 | 0.00 | 0.00 | 71 | 1011.6 |
| 20260509130405 | 18 | 74 | 14.5 | 24.1 | 0.00 | 0.00 | 0.00 | 69 | 1011.6 |
| 20260509123905 | 18 | 79 | 11.3 | 19.3 | 0.00 | 0.00 | 0.00 | 70 | 1012.0 |
| 20260509123405 | 18 | 91 | 9.7 | 19.3 | 0.00 | 0.00 | 0.00 | 70 | 1012.0 |
| 20260509120905 | 19 | 97 | 8.0 | 16.1 | 0.00 | 0.00 | 0.00 | 65 | 1012.4 |
| 20260509120405 | 19 | 65 | 8.0 | 22.5 | 0.00 | 0.00 | 0.00 | 66 | 1012.5 |
| 20260509113903 | 18 | 69 | 9.7 | 16.1 | 0.00 | 0.00 | 0.00 | 74 | 1012.7 |
| 20260509113405 | 18 | 74 | 4.8 | 19.3 | 0.00 | 0.00 | 0.00 | 74 | 1012.7 |
| 20260509110904 | 18 | 70 | 11.3 | 19.3 | 0.00 | 0.00 | 0.00 | 74 | 1012.8 |
| 20260509103905 | 19 | 77 | 11.3 | 19.3 | 0.00 | 0.00 | 0.00 | 68 | 1012.8 |
| 20260509103405 | 19 | 80 | 11.3 | 22.5 | 0.00 | 0.00 | 0.00 | 67 | 1012.8 |
| 20260509100905 | 19 | 106 | 11.3 | 20.9 | 0.00 | 0.00 | 0.00 | 73 | 1013.0 |
| 20260509100406 | 19 | 91 | 9.7 | 20.9 | 0.00 | 0.00 | 0.00 | 72 | 1013.0 |
| 20260509093904 | 19 | 88 | 12.9 | 19.3 | 0.00 | 0.00 | 0.00 | 70 | 1012.7 |
| 20260509093404 | 18 | 86 | 12.9 | 20.9 | 0.00 | 0.00 | 0.00 | 70 | 1012.8 |
| 20260509090905 | 18 | 90 | 4.8 | 16.1 | 0.00 | 0.00 | 0.00 | 75 | 1012.4 |
| 20260509090404 | 18 | 62 | 9.7 | 19.3 | 0.00 | 0.00 | 0.00 | 75 | 1012.4 |
| 20260509083905 | 17 | 72 | 9.7 | 16.1 | 0.00 | 0.00 | 0.00 | 79 | 1012.4 |
| 20260509083404 | 17 | 41 | 8.0 | 14.5 | 0.00 | 0.00 | 0.00 | 81 | 1012.5 |
| 20260509080905 | 16 | 56 | 6.4 | 12.9 | 0.00 | 0.00 | 0.00 | 86 | 1012.8 |
| 20260509080405 | 16 | 69 | 6.4 | 11.3 | 0.00 | 0.00 | 0.00 | 86 | 1012.8 |
| 20260509073904 | 15 | 101 | 1.6 | 3.2 | 0.00 | 0.00 | 0.00 | 86 | 1013.1 |
| 20260509073404 | 15 | 325 | 1.6 | 4.8 | 0.00 | 0.00 | 0.00 | 87 | 1013.1 |
| 20260509070904 | 13 | 321 | 1.6 | 4.8 | 0.00 | 0.00 | 0.00 | 87 | 1013.4 |
| 20260509070404 | 13 | 296 | 3.2 | 4.8 | 0.00 | 0.00 | 0.00 | 87 | 1013.3 |